Latest Weather Observations for Maningrida Airport

IDD60801

Issued at 10:41 pm CST Monday 6 February 2023 (issued every 10 minutes, with the page automatically refreshed every 10 minutes)

About weather observations | Map of weather stations | Latest weather observations for NT | Other Formats
Station Details ID: 014405 Name: MANINGRIDA AIRPORT Lat: -12.06 Lon: 134.23 Height: 28.1 m
Data from the previous 72 hours. | See also: Recent months at Maningrida Airport
Date/Time
CST
Temp
°C
App
Temp
°C
Dew
Point
°C
Rel
Hum
%
Delta-T
°C
Wind Press
QNH
hPa
Press
MSL
hPa
Rain since
9am
mm
Dir  Spd
km/h
Gust
km/h
Spd
kts
Gust
kts
06/10:30pm 28.0 33.1 25.0 84 2.1 WNW 7 9 4 5 1006.3 1006.1 0.0
06/10:00pm 28.1 32.9 25.1 84 2.1 NW 9 15 5 8 1006.1 1005.9 0.0
06/09:30pm 28.2 33.1 25.2 84 2.1 NW 9 13 5 7 1005.9 1005.7 0.0
06/09:00pm 28.5 33.1 25.3 83 2.3 NW 11 15 6 8 1005.8 1005.6 0.0
06/08:30pm 28.6 33.0 25.0 81 2.5 NW 11 17 6 9 1005.7 1005.5 0.0
06/08:00pm 28.7 32.5 25.3 82 2.4 NNW 15 20 8 11 1005.4 1005.2 0.0
06/07:30pm 28.8 32.9 25.2 81 2.5 NNW 13 19 7 10 1005.3 1005.1 0.0
06/07:00pm 29.0 33.0 25.6 82 2.4 NNW 15 19 8 10 1004.9 1004.7 0.0
06/06:30pm 29.6 33.2 25.6 79 2.8 NNW 17 20 9 11 1004.7 1004.5 0.0
06/06:00pm 30.3 33.5 24.9 73 3.8 NNW 17 20 9 11 1004.4 1004.2 0.0
06/05:30pm 30.2 33.8 25.0 73 3.7 N 15 20 8 11 1004.4 1004.2 0.0
06/05:00pm 31.3 35.2 25.4 71 4.2 NNW 15 19 8 10 1004.3 1004.1 0.0
06/04:30pm 30.5 33.7 24.4 70 4.3 N 15 20 8 11 1004.1 1003.9 0.0
06/04:00pm 31.5 35.9 25.6 71 4.2 N 13 17 7 9 1004.1 1003.9 0.0
06/03:30pm 31.1 34.4 24.5 68 4.6 NNW 15 20 8 11 1004.4 1004.2 0.0
06/03:00pm 30.7 33.2 24.8 71 4.2 N 20 28 11 15 1004.5 1004.3 0.0
06/02:30pm 31.5 36.6 26.1 73 3.9 NNW 11 17 6 9 1004.7 1004.5 0.0
06/02:00pm 32.2 36.6 23.4 59 6.1 NW 6 11 3 6 1005.0 1004.8 0.0
06/01:30pm 31.5 35.2 23.9 64 5.3 NW 11 17 6 9 1005.4 1005.2 0.0
06/01:00pm 31.6 36.7 24.7 67 4.8 W 6 15 3 8 1005.7 1005.5 0.0
06/12:30pm 30.7 36.0 24.4 69 4.4 ENE 4 9 2 5 1006.0 1005.8 0.0
06/12:00pm 29.5 34.1 24.8 76 3.3 NNE 9 11 5 6 1006.5 1006.3 0.0
06/11:30am 29.3 33.7 25.1 78 3.0 N 11 15 6 8 1006.9 1006.7 0.0
06/11:00am 29.2 34.3 24.7 76 3.1 WNW 6 11 3 6 1007.2 1007.0 0.0
06/10:30am 29.9 35.3 24.5 73 3.8 ESE 4 13 2 7 1007.5 1007.3 0.0
06/10:00am 29.3 34.3 24.8 77 3.2 SSW 7 11 4 6 1007.6 1007.4 0.0
06/09:30am 28.8 34.1 25.2 81 2.5 SSE 7 11 4 6 1007.6 1007.4 0.0
06/09:00am 26.7 32.1 25.1 91 1.1 SW 6 9 3 5 1007.5 1007.3 7.0
06/08:30am 25.8 31.6 25.1 96 0.5 SW 4 11 2 6 1007.4 1007.2 7.0
06/08:00am 25.3 31.3 24.8 97 0.3 SSW 2 9 1 5 1007.3 1007.1 7.0
06/07:30am 25.1 30.9 24.6 97 0.3 SW 2 7 1 4 1007.0 1006.8 7.0
06/07:00am 24.8 29.7 24.3 97 0.3 SSW 6 9 3 5 1006.3 1006.1 7.0
06/06:30am 24.6 30.6 24.3 98 0.2 CALM 0 0 0 0 1005.9 1005.7 7.0
06/06:00am 24.6 29.5 24.3 98 0.2 SW 6 9 3 5 1005.5 1005.3 7.0
06/05:30am 24.7 30.7 24.2 97 0.3 CALM 0 0 0 0 1005.3 1005.1 7.0
06/05:00am 24.8 30.8 24.3 97 0.3 CALM 0 0 0 0 1005.0 1004.8 7.0
06/04:30am 24.8 30.8 24.3 97 0.3 CALM 0 0 0 0 1005.1 1004.9 6.8
06/04:00am 24.7 29.9 24.2 97 0.3 ENE 4 7 2 4 1005.1 1004.9 6.8
06/03:30am 24.6 29.3 23.9 96 0.5 E 6 11 3 6 1005.3 1005.1 6.8
06/03:27am 24.6 29.1 23.9 96 0.5 ENE 7 11 4 6 1005.3 1005.1 6.8
06/03:11am 24.8 28.8 23.8 94 0.7 NE 9 15 5 8 1005.1 1004.9 6.6
06/03:00am 25.3 29.3 23.7 91 1.1 ENE 9 17 5 9 1005.3 1005.1 5.2
06/02:30am 26.2 30.6 24.4 90 1.2 ENE 9 13 5 7 1005.1 1004.9 5.2
06/02:00am 26.4 31.5 25.0 92 1.0 S 7 11 4 6 1005.1 1004.9 5.2
06/01:30am 26.4 31.8 25.2 93 0.8 SSW 6 9 3 5 1005.4 1005.2 5.2
06/01:00am 26.5 33.1 25.3 93 0.8 CALM 0 6 0 3 1005.8 1005.6 5.2
06/12:30am 26.5 33.1 25.3 93 0.8 CALM 0 0 0 0 1006.0 1005.8 5.2
06/12:00am 26.5 33.3 25.6 95 0.6 CALM 0 0 0 0 1006.3 1006.1 5.2
 
Date/Time
CST
Temp
°C
App
Temp
°C
Dew
Point
°C
Rel
Hum
%
Delta-T
°C
Wind Press
QNH
hPa
Press
MSL
hPa
Rain since
9am
mm
Dir  Spd
km/h
Gust
km/h
Spd
kts
Gust
kts
05/11:30pm 26.8 33.6 25.6 93 0.8 CALM 0 0 0 0 1006.4 1006.2 5.2
05/11:00pm 27.2 34.2 25.8 92 1.0 CALM 0 0 0 0 1006.6 1006.4 5.2
05/10:30pm 27.8 33.1 25.0 85 2.0 ENE 6 9 3 5 1006.3 1006.1 5.2
05/10:00pm 27.7 32.9 25.1 86 1.8 NE 7 11 4 6 1006.0 1005.8 5.2
05/09:30pm 27.5 34.1 25.3 88 1.5 CALM 0 0 0 0 1005.9 1005.7 5.2
05/09:00pm 27.6 34.1 25.0 86 1.8 CALM 0 0 0 0 1005.7 1005.5 5.2
05/08:30pm 27.7 33.1 24.5 83 2.2 NE 4 7 2 4 1005.4 1005.2 5.2
05/08:00pm 27.9 32.7 24.5 82 2.4 NE 7 9 4 5 1005.2 1005.0 5.2
05/07:30pm 28.0 33.4 25.4 86 1.8 NE 7 11 4 6 1004.9 1004.7 5.2
05/07:00pm 28.0 32.7 25.6 87 1.7 NNE 11 15 6 8 1004.6 1004.4 5.2
05/06:30pm 28.2 32.6 25.6 86 1.8 NNE 13 19 7 10 1004.3 1004.1 5.2
05/06:00pm 28.0 32.6 25.4 86 1.8 NNE 11 15 6 8 1003.8 1003.6 5.2
05/05:30pm 26.1 30.4 24.3 90 1.2 NE 9 11 5 6 1003.7 1003.5 5.2
05/05:17pm 26.4 30.1 23.9 86 1.7 NNE 11 13 6 7 1003.7 1003.5 5.2
05/05:00pm 24.8 25.0 22.1 85 1.8 E 24 39 13 21 1004.3 1004.1 4.6
05/04:52pm 25.3 24.4 22.2 83 2.1 E 30 46 16 25 1004.1 1003.9 1.6
05/04:46pm 28.8 29.8 22.1 67 4.5 E 20 41 11 22 1004.0 1003.8 0.6
05/04:30pm 31.2 33.9 24.1 66 5.0 NE 17 24 9 13 1003.6 1003.4 0.6
05/04:00pm 31.0 33.5 24.4 68 4.6 NE 19 26 10 14 1003.6 1003.4 0.6
05/03:30pm 31.3 34.5 24.9 69 4.5 NE 17 26 9 14 1003.7 1003.5 0.6
05/03:00pm 31.2 33.9 24.1 66 5.0 NE 17 24 9 13 1003.8 1003.6 0.6
05/02:30pm 31.2 33.8 23.3 63 5.5 ENE 15 22 8 12 1003.9 1003.7 0.6
05/02:00pm 30.8 34.7 24.9 71 4.1 ENE 13 22 7 12 1004.2 1004.0 0.4
05/01:30pm 30.5 33.1 22.7 63 5.3 E 13 26 7 14 1004.5 1004.3 0.4
05/01:00pm 31.9 35.1 23.7 62 5.7 E 13 22 7 12 1004.7 1004.5 0.2
05/12:30pm 32.5 33.9 21.0 50 7.7 ENE 15 22 8 12 1005.0 1004.8 0.2
05/12:00pm 31.8 32.9 21.3 53 7.1 ENE 17 24 9 13 1005.3 1005.1 0.2
05/11:30am 31.6 35.9 24.2 65 5.2 SE 9 15 5 8 1005.5 1005.3 0.2
05/11:00am 30.5 34.6 23.9 68 4.6 NE 9 15 5 8 1005.9 1005.7 0.2
05/10:30am 30.3 36.1 25.1 73 3.7 E 4 11 2 6 1006.3 1006.1 0.2
05/10:00am 29.2 33.7 23.9 73 3.7 ENE 7 13 4 7 1006.6 1006.4 0.2
05/09:30am 29.0 34.3 25.0 79 2.8 E 6 11 3 6 1006.5 1006.3 0.0
05/09:00am 27.7 32.1 24.5 83 2.2 E 9 13 5 7 1006.6 1006.4 9.0
05/08:30am 26.7 32.1 25.1 91 1.1 SE 6 9 3 5 1006.5 1006.3 9.0
05/08:00am 26.0 31.2 24.8 93 0.8 SSE 6 9 3 5 1006.2 1006.0 9.0
05/07:30am 25.6 30.7 24.6 94 0.7 SE 6 7 3 4 1006.1 1005.9 9.0
05/07:00am 25.0 29.4 24.5 97 0.3 SSE 9 9 5 5 1006.0 1005.8 9.0
05/06:30am 24.8 29.1 24.3 97 0.3 SSE 9 11 5 6 1005.8 1005.6 9.0
05/06:00am 24.8 29.4 24.1 96 0.5 ESE 7 11 4 6 1005.5 1005.3 9.0
05/05:30am 24.7 30.2 24.0 96 0.5 ENE 2 7 1 4 1005.1 1004.9 9.0
05/05:00am 24.6 30.5 24.1 97 0.3 CALM 0 0 0 0 1005.3 1005.1 9.0
05/04:30am 24.6 30.4 23.9 96 0.5 CALM 0 0 0 0 1005.2 1005.0 9.0
05/04:00am 24.5 30.2 23.8 96 0.5 CALM 0 0 0 0 1004.9 1004.7 9.0
05/03:30am 24.3 29.9 23.6 96 0.5 CALM 0 0 0 0 1004.9 1004.7 9.0
05/03:00am 24.5 29.5 23.8 96 0.5 S 4 9 2 5 1004.9 1004.7 9.0
05/02:30am 24.4 28.9 23.7 96 0.5 SSE 6 7 3 4 1004.7 1004.5 9.0
05/02:00am 24.5 29.9 23.8 96 0.5 SE 2 9 1 5 1004.9 1004.7 9.0
05/01:30am 24.6 30.3 23.7 95 0.6 CALM 0 0 0 0 1005.3 1005.1 9.0
05/01:00am 24.6 30.0 23.9 96 0.5 SE 2 9 1 5 1005.5 1005.3 9.0
05/12:30am 24.8 30.7 24.1 96 0.5 CALM 0 0 0 0 1005.8 1005.6 9.0
05/12:00am 24.2 29.8 23.5 96 0.5 CALM 0 0 0 0 1006.1 1005.9 9.0
 
Date/Time
CST
Temp
°C
App
Temp
°C
Dew
Point
°C
Rel
Hum
%
Delta-T
°C
Wind Press
QNH
hPa
Press
MSL
hPa
Rain since
9am
mm
Dir  Spd
km/h
Gust
km/h
Spd
kts
Gust
kts
04/11:30pm 24.0 27.6 23.1 95 0.6 SSE 9 11 5 6 1006.5 1006.3 9.0
04/11:00pm 24.0 26.7 23.5 97 0.3 SSE 15 19 8 10 1006.9 1006.7 9.0
04/10:30pm 23.8 26.8 23.3 97 0.3 SE 13 19 7 10 1007.3 1007.1 8.8
04/10:00pm 23.5 27.0 22.8 96 0.5 SSW 9 13 5 7 1007.0 1006.8 8.6
04/09:30pm 23.6 26.8 23.1 97 0.3 SW 11 17 6 9 1007.1 1006.9 8.2
04/09:00pm 23.6 26.7 22.8 95 0.5 SW 11 17 6 9 1006.8 1006.6 7.6
04/08:30pm 23.9 27.1 23.0 95 0.6 SSW 11 15 6 8 1006.8 1006.6 7.2
04/08:00pm 24.1 27.7 23.1 94 0.7 SW 9 13 5 7 1006.6 1006.4 6.6
04/07:30pm 24.5 28.5 23.1 92 0.9 SW 7 17 4 9 1006.0 1005.8 6.2
04/07:00pm 24.8 29.0 23.2 91 1.1 WNW 6 9 3 5 1005.0 1004.8 5.8
04/06:30pm 24.8 29.0 23.4 92 1.0 W 7 11 4 6 1004.5 1004.3 5.6
04/06:00pm 24.9 29.1 23.5 92 1.0 N 7 11 4 6 1003.8 1003.6 5.4
04/05:30pm 24.4 28.8 23.4 94 0.7 SSE 6 11 3 6 1003.8 1003.6 4.4
04/05:00pm 25.2 25.8 23.4 90 1.2 SE 26 35 14 19 1003.7 1003.5 0.0
04/04:30pm 27.4 29.4 23.0 77 3.0 SE 17 30 9 16 1003.5 1003.3 0.0
04/04:00pm 29.9 32.7 25.2 76 3.3 N 20 28 11 15 1002.4 1002.2 0.0
04/03:30pm 30.5 33.4 25.1 73 3.8 N 19 26 10 14 1002.8 1002.6 0.0
04/03:00pm 31.9 35.7 24.7 65 5.1 NW 13 20 7 11 1003.0 1002.8 0.0
04/02:30pm 32.7 37.6 24.7 62 5.7 SW 7 13 4 7 1003.2 1003.0 0.0
04/02:00pm 32.0 37.2 24.8 65 5.1 SW 6 9 3 5 1003.4 1003.2 0.0
04/01:30pm 31.4 35.5 24.5 67 4.8 WSW 11 15 6 8 1004.0 1003.8 0.0
04/01:00pm 30.1 33.4 23.8 69 4.4 SW 13 20 7 11 1004.5 1004.3 0.0
04/12:30pm 29.7 34.6 24.3 73 3.8 WSW 6 11 3 6 1004.8 1004.6 0.0
04/12:00pm 28.9 32.4 23.6 73 3.7 WSW 11 15 6 8 1005.5 1005.3 0.0
04/11:30am 28.7 32.2 23.6 74 3.5 W 11 15 6 8 1005.8 1005.6 0.0
04/11:00am 28.7 33.1 23.8 75 3.4 WSW 7 13 4 7 1006.0 1005.8 0.0
04/10:30am 28.3 33.1 24.1 78 2.9 WSW 6 11 3 6 1006.1 1005.9 0.0
04/10:00am 27.6 31.4 23.4 78 2.9 WNW 9 15 5 8 1006.3 1006.1 0.0
04/09:30am 27.3 31.2 22.9 77 3.0 WNW 7 11 4 6 1006.2 1006.0 0.0
04/09:00am 26.9 30.8 22.5 77 3.0 WSW 6 11 3 6 1006.1 1005.9 0.8
04/08:30am 26.6 31.1 22.2 77 3.0 SW 2 9 1 5 1005.9 1005.7 0.8
04/08:00am 26.2 29.8 22.1 78 2.7 SW 6 9 3 5 1005.7 1005.5 0.8
04/07:30am 26.1 29.5 21.7 77 2.9 W 6 11 3 6 1005.5 1005.3 0.8
04/07:00am 26.0 29.4 21.7 77 2.9 W 6 9 3 5 1004.9 1004.7 0.8
04/06:30am 26.0 29.4 21.7 77 2.9 WSW 6 13 3 7 1004.6 1004.4 0.8
04/06:00am 26.1 29.8 22.6 81 2.4 SW 7 11 4 6 1004.1 1003.9 0.8
04/05:30am 26.3 29.9 23.0 82 2.2 W 9 17 5 9 1003.9 1003.7 0.8
04/05:00am 26.4 30.5 23.9 86 1.7 WNW 9 15 5 8 1003.8 1003.6 0.8
04/04:30am 26.4 30.7 24.2 88 1.5 W 9 19 5 10 1003.8 1003.6 0.8
04/04:08am 26.3 30.8 24.0 87 1.6 W 7 13 4 7 1003.7 1003.5 0.8
04/04:00am 26.4 30.9 23.9 86 1.7 WNW 7 13 4 7 1003.8 1003.6 0.8
04/03:43am 26.3 30.5 23.4 84 2.0 W 7 15 4 8 1003.7 1003.5 0.8
04/03:30am 26.3 30.5 23.2 83 2.1 WNW 6 9 3 5 1003.7 1003.5 0.8
04/03:00am 26.4 30.1 22.5 79 2.6 W 7 11 4 6 1003.6 1003.4 0.8
04/02:30am 26.6 30.1 22.2 77 3.0 W 7 9 4 5 1003.6 1003.4 0.8
04/02:00am 26.8 30.9 22.2 76 3.1 W 4 9 2 5 1003.7 1003.5 0.8
04/01:30am 27.2 31.0 22.8 77 3.0 WNW 7 11 4 6 1003.8 1003.6 0.8
04/01:00am 27.2 32.1 24.3 84 2.0 WSW 6 11 3 6 1004.0 1003.8 0.8
04/12:30am 27.6 32.6 24.8 85 2.0 W 7 13 4 7 1004.5 1004.3 0.8
04/12:00am 28.0 32.9 25.2 85 2.0 W 9 17 5 9 1004.9 1004.7 0.8
 
Date/Time
CST
Temp
°C
App
Temp
°C
Dew
Point
°C
Rel
Hum
%
Delta-T
°C
Wind Press
QNH
hPa
Press
MSL
hPa
Rain since
9am
mm
Dir  Spd
km/h
Gust
km/h
Spd
kts
Gust
kts
03/11:30pm 28.2 33.3 25.6 86 1.8 W 9 15 5 8 1004.9 1004.7 0.8
03/11:00pm 28.3 33.5 25.7 86 1.8 WNW 9 17 5 9 1005.2 1005.0 0.8

Other formats

Comma delimited format used in spreadsheet applications
http://www.bom.gov.au/fwo/IDD60801/IDD60801.95142.axf

JavaScript Object Notation format (JSON) in row-major order
http://www.bom.gov.au/fwo/IDD60801/IDD60801.95142.json

Data quality

Most of these data are generated automatically and are frequently updated. Quality checks on data are not normally performed. It is possible for incorrect values to appear. Refer to information at About Latest Weather Observations and please check the disclaimer before using these data.